Time;durP1;ratioP1;P1;durP2;ratioP2;P2;SDS_P1;SDS_P2;PMS_P1;PMS_P2;Temp;Humidity;BMP_temperature;BMP_pressure;BME280_temperature;BME280_humidity;BME280_pressure;Samples;Min_cycle;Max_cycle;Signal;HPM_P1;HPM_P2
2023/12/08 00:03:31;;;;;;;6.70;4.28;;;3.60;99.90;;;;;;7348897;32;20531;-56
2023/12/08 00:07:32;;;;;;;8.57;4.15;;;3.60;99.90;;;;;;7347186;32;20163;-56
2023/12/08 00:11:34;;;;;;;6.65;4.07;;;3.50;99.90;;;;;;7351349;32;20240;-57
2023/12/08 00:15:36;;;;;;;6.20;4.30;;;3.40;99.90;;;;;;7346113;32;20208;-58
2023/12/08 00:19:38;;;;;;;6.97;4.25;;;3.50;99.90;;;;;;7349464;32;20581;-58
2023/12/08 00:23:39;;;;;;;9.23;4.95;;;3.40;99.90;;;;;;7348229;32;20107;-56
2023/12/08 00:27:42;;;;;;;9.60;4.82;;;3.40;99.90;;;;;;7345971;32;20129;-56
2023/12/08 00:31:44;;;;;;;8.20;5.35;;;3.40;99.90;;;;;;7352199;32;20406;-55
2023/12/08 00:35:48;;;;;;;8.52;4.97;;;3.30;99.90;;;;;;7351648;32;20125;-57
2023/12/08 00:39:49;;;;;;;8.82;5.40;;;3.30;99.90;;;;;;7342392;32;20593;-55
2023/12/08 00:43:51;;;;;;;9.30;5.32;;;3.30;99.90;;;;;;7350839;32;20157;-55
2023/12/08 00:47:53;;;;;;;8.00;4.97;;;3.30;99.90;;;;;;7346733;32;20099;-57
2023/12/08 00:51:55;;;;;;;9.00;5.00;;;3.30;99.90;;;;;;7352157;32;20095;-54
2023/12/08 00:55:57;;;;;;;9.13;5.43;;;3.30;99.90;;;;;;7349965;32;20206;-58
2023/12/08 00:59:58;;;;;;;9.77;5.20;;;3.30;99.90;;;;;;7352373;32;20509;-58
2023/12/08 01:04:00;;;;;;;8.57;5.20;;;3.30;99.90;;;;;;7349533;32;20100;-55
2023/12/08 01:08:02;;;;;;;8.18;5.15;;;3.30;99.90;;;;;;7352422;32;20095;-56
2023/12/08 01:12:04;;;;;;;8.25;5.10;;;3.40;99.90;;;;;;7353560;32;20206;-56
2023/12/08 01:16:07;;;;;;;9.63;5.45;;;3.40;99.90;;;;;;7351911;32;20102;-58
2023/12/08 01:20:09;;;;;;;9.88;4.95;;;3.30;99.90;;;;;;7352497;32;20221;-58
2023/12/08 01:24:12;;;;;;;8.32;5.50;;;3.40;99.90;;;;;;7349695;32;20254;-56
2023/12/08 01:28:15;;;;;;;8.73;5.45;;;3.50;99.90;;;;;;7347222;32;20100;-56
2023/12/08 01:32:17;;;;;;;9.10;5.43;;;3.40;99.90;;;;;;7347840;32;20125;-58
2023/12/08 01:36:19;;;;;;;8.77;5.60;;;3.40;99.90;;;;;;7351520;32;20185;-58
2023/12/08 01:40:41;;;;;;;8.68;5.25;;;3.50;99.90;;;;;;7347276;32;20166;-57
2023/12/08 01:44:43;;;;;;;9.63;5.70;;;3.40;99.90;;;;;;7351754;32;20099;-56
2023/12/08 01:48:46;;;;;;;9.10;5.65;;;3.50;99.90;;;;;;7353389;32;20511;-56
2023/12/08 01:52:50;;;;;;;8.52;5.45;;;3.40;99.90;;;;;;7347963;32;20095;-57
2023/12/08 01:56:52;;;;;;;10.27;5.47;;;3.50;99.90;;;;;;7354259;32;20217;-56
2023/12/08 02:00:55;;;;;;;11.73;5.70;;;3.50;99.90;;;;;;7347621;32;20130;-56
2023/12/08 02:04:58;;;;;;;10.88;5.72;;;3.40;99.90;;;;;;7350188;32;20170;-56
2023/12/08 02:09:00;;;;;;;9.27;5.65;;;3.40;99.90;;;;;;7344727;32;20103;-56
2023/12/08 02:13:01;;;;;;;10.25;6.05;;;3.40;99.90;;;;;;7348161;32;20103;-58
2023/12/08 02:17:16;;;;;;;8.70;5.70;;;3.40;99.90;;;;;;7341071;32;20592;-56
2023/12/08 02:21:18;;;;;;;16.10;5.93;;;3.40;99.90;;;;;;7345720;32;20103;-56
2023/12/08 02:25:20;;;;;;;10.45;6.30;;;3.40;99.90;;;;;;7350281;32;20386;-56
2023/12/08 02:29:22;;;;;;;11.73;6.20;;;3.50;99.90;;;;;;7351586;32;20485;-55
2023/12/08 02:33:30;;;;;;;11.52;6.05;;;3.40;99.90;;;;;;7350230;32;20214;-55
2023/12/08 02:37:38;;;;;;;12.50;6.60;;;3.30;99.90;;;;;;7345388;32;20545;-56
2023/12/08 02:41:42;;;;;;;11.40;6.93;;;3.30;99.90;;;;;;7352112;32;20580;-56
2023/12/08 02:45:43;;;;;;;11.88;7.70;;;3.10;99.90;;;;;;7346808;32;20123;-56
2023/12/08 02:49:45;;;;;;;11.50;7.12;;;3.00;99.90;;;;;;7350530;32;20119;-56
2023/12/08 02:53:47;;;;;;;11.23;7.15;;;2.80;99.90;;;;;;7343753;32;20111;-56
2023/12/08 02:57:48;;;;;;;13.73;7.50;;;2.80;99.90;;;;;;7347758;32;20376;-56
2023/12/08 03:01:50;;;;;;;10.95;7.57;;;2.70;99.90;;;;;;7347487;32;20519;-56
2023/12/08 03:05:52;;;;;;;11.82;7.70;;;2.70;99.90;;;;;;7346909;32;20535;-56
2023/12/08 03:09:54;;;;;;;12.00;7.97;;;2.60;99.90;;;;;;7353011;32;20556;-57
2023/12/08 03:13:56;;;;;;;14.20;8.05;;;2.60;99.90;;;;;;7347280;32;20174;-56
2023/12/08 03:17:58;;;;;;;12.20;7.55;;;2.70;99.90;;;;;;7347822;32;20095;-57
2023/12/08 03:22:00;;;;;;;12.85;7.85;;;2.60;99.90;;;;;;7345636;32;20126;-56
2023/12/08 03:26:02;;;;;;;12.35;7.75;;;2.60;99.90;;;;;;7347667;32;20251;-56
2023/12/08 03:30:05;;;;;;;13.05;8.15;;;2.60;99.90;;;;;;7343056;32;20227;-56
2023/12/08 03:34:07;;;;;;;12.82;7.47;;;2.70;99.90;;;;;;7345780;32;20471;-57
2023/12/08 03:38:09;;;;;;;13.35;7.95;;;2.70;99.90;;;;;;7348311;32;20277;-57
2023/12/08 03:42:11;;;;;;;12.95;7.35;;;2.70;99.90;;;;;;7349270;32;20224;-56
2023/12/08 03:46:13;;;;;;;12.40;7.30;;;2.80;99.90;;;;;;7343665;32;20231;-56
2023/12/08 03:50:14;;;;;;;13.38;6.87;;;2.80;99.90;;;;;;7351417;32;20103;-56
2023/12/08 03:54:16;;;;;;;11.25;7.10;;;2.80;99.90;;;;;;7346595;32;20214;-56
2023/12/08 03:58:18;;;;;;;10.98;6.57;;;2.90;99.90;;;;;;7345813;32;20517;-57
2023/12/08 04:02:19;;;;;;;12.43;6.82;;;2.90;99.90;;;;;;7348170;32;20505;-56
2023/12/08 04:06:21;;;;;;;13.60;7.45;;;2.90;99.90;;;;;;7350272;32;20214;-56
2023/12/08 04:10:23;;;;;;;12.82;7.80;;;3.00;99.90;;;;;;7349081;32;20138;-56
2023/12/08 04:14:25;;;;;;;12.88;7.50;;;2.90;99.90;;;;;;7355840;32;20335;-56
2023/12/08 04:18:27;;;;;;;13.95;8.25;;;3.00;99.90;;;;;;7354666;32;20200;-56
2023/12/08 04:22:29;;;;;;;11.02;7.35;;;2.90;99.90;;;;;;7353549;32;20503;-57
2023/12/08 04:26:31;;;;;;;14.50;7.87;;;2.90;99.90;;;;;;7353088;32;20099;-58
2023/12/08 04:30:33;;;;;;;13.05;7.47;;;3.00;99.90;;;;;;7352157;32;20152;-56
2023/12/08 04:34:34;;;;;;;11.93;7.28;;;2.90;99.90;;;;;;7354371;32;20951;-55
2023/12/08 04:38:36;;;;;;;11.88;7.40;;;3.00;99.90;;;;;;7349604;32;20430;-57
2023/12/08 04:42:38;;;;;;;13.23;6.95;;;2.90;99.90;;;;;;7351938;32;20223;-57
2023/12/08 04:46:40;;;;;;;14.07;8.15;;;2.90;99.90;;;;;;7350226;32;20126;-55
2023/12/08 04:50:42;;;;;;;13.15;7.97;;;2.80;99.90;;;;;;7354046;32;20208;-56
2023/12/08 04:54:44;;;;;;;16.25;8.43;;;2.70;99.90;;;;;;7348318;32;20100;-56
2023/12/08 04:58:47;;;;;;;14.32;8.45;;;2.70;99.90;;;;;;7347873;32;20160;-57
2023/12/08 05:02:49;;;;;;;14.95;8.75;;;2.60;99.90;;;;;;7347515;32;20251;-55
2023/12/08 05:06:51;;;;;;;18.17;9.02;;;2.60;99.90;;;;;;7346666;32;20124;-56
2023/12/08 05:10:53;;;;;;;17.62;9.50;;;2.50;99.90;;;;;;7348096;32;20144;-56
2023/12/08 05:14:54;;;;;;;15.65;10.00;;;2.50;99.90;;;;;;7351189;32;20107;-55
2023/12/08 05:18:56;;;;;;;17.00;9.75;;;2.50;99.90;;;;;;7352183;32;20566;-56
2023/12/08 05:22:59;;;;;;;18.25;10.68;;;2.50;99.90;;;;;;7356346;32;20263;-57
2023/12/08 05:27:00;;;;;;;15.75;9.52;;;2.60;99.90;;;;;;7351521;32;20178;-56
2023/12/08 05:31:04;;;;;;;15.80;9.98;;;2.50;99.90;;;;;;7352719;32;20103;-56
2023/12/08 05:35:06;;;;;;;16.23;10.27;;;2.50;99.90;;;;;;7347406;32;20470;-58
2023/12/08 05:39:07;;;;;;;17.77;10.50;;;2.50;99.90;;;;;;7352145;32;20478;-56
2023/12/08 05:43:09;;;;;;;19.20;11.05;;;2.50;99.90;;;;;;7348458;32;20190;-56
2023/12/08 05:47:11;;;;;;;21.83;11.02;;;2.50;99.90;;;;;;7350219;32;20117;-56
2023/12/08 05:51:13;;;;;;;21.37;11.00;;;2.50;99.90;;;;;;7345283;32;20160;-55
2023/12/08 05:55:15;;;;;;;17.55;11.02;;;2.60;99.90;;;;;;7350292;32;20100;-56
2023/12/08 05:59:16;;;;;;;19.02;11.02;;;2.60;99.90;;;;;;7353107;32;20333;-55
2023/12/08 06:03:18;;;;;;;21.50;11.63;;;2.60;99.90;;;;;;7353929;32;20129;-57
2023/12/08 06:07:20;;;;;;;21.35;12.15;;;2.60;99.90;;;;;;7347133;32;20243;-57
2023/12/08 06:11:22;;;;;;;22.10;11.30;;;2.60;99.90;;;;;;7344309;32;20104;-56
2023/12/08 06:15:24;;;;;;;17.65;10.57;;;2.60;99.90;;;;;;7342597;32;20132;-55
2023/12/08 06:19:25;;;;;;;18.20;11.12;;;2.60;99.90;;;;;;7350119;32;20239;-57
2023/12/08 06:23:27;;;;;;;20.67;12.18;;;2.60;99.90;;;;;;7349460;32;20343;-57
2023/12/08 06:27:29;;;;;;;18.23;11.75;;;2.70;99.90;;;;;;7346430;32;20194;-56
2023/12/08 06:31:31;;;;;;;22.15;11.55;;;2.60;99.90;;;;;;7352780;32;20139;-56
2023/12/08 06:35:33;;;;;;;17.45;10.77;;;2.70;99.90;;;;;;7346119;32;20285;-56
2023/12/08 06:39:34;;;;;;;20.30;12.13;;;2.80;99.90;;;;;;7350992;32;20556;-56
2023/12/08 06:43:36;;;;;;;22.48;12.13;;;2.70;99.90;;;;;;7347871;32;20588;-58
2023/12/08 06:47:38;;;;;;;21.67;11.25;;;2.70;99.90;;;;;;7343237;32;20592;-58
2023/12/08 06:51:40;;;;;;;20.55;11.38;;;2.80;99.90;;;;;;7345735;32;20301;-57
2023/12/08 06:55:42;;;;;;;22.55;12.02;;;2.80;99.90;;;;;;7343642;32;20162;-56
2023/12/08 06:59:45;;;;;;;18.77;12.07;;;2.90;99.90;;;;;;7338261;32;20111;-56
2023/12/08 07:03:47;;;;;;;19.77;12.10;;;2.90;99.90;;;;;;7345046;32;20122;-56
2023/12/08 07:07:49;;;;;;;20.37;12.30;;;2.90;99.90;;;;;;7347750;32;20096;-57
2023/12/08 07:11:51;;;;;;;24.55;13.10;;;2.80;99.90;;;;;;7344957;32;20333;-56
2023/12/08 07:15:52;;;;;;;21.77;11.63;;;2.90;99.90;;;;;;7334881;32;20529;-55
2023/12/08 07:19:55;;;;;;;20.45;12.82;;;2.80;99.90;;;;;;7338056;32;22010;-55
2023/12/08 07:23:56;;;;;;;21.35;11.88;;;2.80;99.90;;;;;;7343719;32;20137;-55
2023/12/08 07:27:58;;;;;;;20.30;12.63;;;2.80;99.90;;;;;;7334029;32;20190;-54
2023/12/08 07:32:00;;;;;;;21.67;12.48;;;2.90;99.90;;;;;;7341563;32;20198;-55
2023/12/08 07:36:02;;;;;;;21.10;12.00;;;2.90;99.90;;;;;;7348294;32;20643;-55
2023/12/08 07:40:05;;;;;;;20.27;12.45;;;2.90;99.90;;;;;;7343418;32;20480;-55
2023/12/08 07:44:06;;;;;;;17.40;11.68;;;3.00;99.90;;;;;;7344257;32;20455;-55
2023/12/08 07:48:08;;;;;;;18.48;11.88;;;3.10;99.90;;;;;;7345017;32;20511;-56
2023/12/08 07:52:14;;;;;;;20.12;11.85;;;3.10;99.90;;;;;;7348147;32;22320;-57
2023/12/08 07:56:16;;;;;;;16.95;11.25;;;3.10;99.90;;;;;;7349449;32;20175;-57
2023/12/08 08:00:17;;;;;;;17.83;11.70;;;3.10;99.90;;;;;;7350349;32;20451;-56
2023/12/08 08:04:19;;;;;;;20.17;12.27;;;3.20;99.90;;;;;;7344751;32;20128;-55
2023/12/08 08:08:21;;;;;;;20.33;12.18;;;3.20;99.90;;;;;;7343139;32;20172;-55
2023/12/08 08:12:23;;;;;;;21.98;12.73;;;3.30;99.90;;;;;;7340418;32;20170;-54
2023/12/08 08:16:24;;;;;;;18.00;11.82;;;3.20;99.90;;;;;;7345972;32;20099;-57
2023/12/08 08:20:26;;;;;;;19.40;11.30;;;3.20;99.90;;;;;;7342239;32;20208;-56
2023/12/08 08:24:29;;;;;;;16.98;10.98;;;3.20;99.90;;;;;;7347242;32;20221;-56
2023/12/08 08:28:31;;;;;;;19.40;11.52;;;3.30;99.90;;;;;;7349169;32;20225;-56
2023/12/08 08:32:32;;;;;;;22.95;12.90;;;3.40;99.90;;;;;;7342012;32;20186;-55
2023/12/08 08:36:34;;;;;;;16.75;10.88;;;3.30;99.90;;;;;;7347293;32;20119;-55
2023/12/08 08:40:36;;;;;;;18.23;11.40;;;3.40;99.90;;;;;;7347620;32;20205;-55
2023/12/08 08:44:37;;;;;;;18.70;11.85;;;3.40;99.90;;;;;;7346148;32;20241;-55
2023/12/08 08:48:39;;;;;;;17.52;10.85;;;3.40;99.90;;;;;;7343921;32;20356;-56
2023/12/08 08:52:41;;;;;;;17.05;11.93;;;3.50;99.90;;;;;;7350070;32;20599;-55
2023/12/08 08:56:43;;;;;;;19.40;12.35;;;3.50;99.90;;;;;;7345669;32;20183;-55
2023/12/08 09:00:45;;;;;;;15.52;10.80;;;3.50;99.90;;;;;;7347281;32;20099;-55
2023/12/08 09:04:47;;;;;;;19.65;11.73;;;3.50;99.90;;;;;;7348262;32;20118;-55
2023/12/08 09:08:49;;;;;;;16.95;11.73;;;3.60;99.90;;;;;;7353299;32;20151;-56
2023/12/08 09:12:50;;;;;;;21.77;11.65;;;3.60;99.90;;;;;;7350577;32;20381;-55
2023/12/08 09:16:52;;;;;;;18.95;12.45;;;3.60;99.90;;;;;;7352123;32;20103;-55
2023/12/08 09:20:54;;;;;;;19.23;11.95;;;3.60;99.90;;;;;;7347155;32;20151;-55
2023/12/08 09:24:55;;;;;;;20.85;12.65;;;3.70;99.90;;;;;;7345849;32;20099;-55
2023/12/08 09:28:57;;;;;;;19.02;11.70;;;3.70;99.90;;;;;;7345757;32;20175;-55
2023/12/08 09:32:59;;;;;;;18.15;12.55;;;3.70;99.90;;;;;;7349886;32;20572;-55
2023/12/08 09:37:01;;;;;;;21.87;12.85;;;3.70;99.90;;;;;;7347542;32;20234;-55
2023/12/08 09:41:25;;;;;;;24.25;12.15;;;3.70;99.90;;;;;;7348653;32;20543;-54
2023/12/08 09:45:27;;;;;;;23.08;13.00;;;3.70;99.90;;;;;;7343062;32;20945;-55
2023/12/08 09:49:36;;;;;;;20.05;13.00;;;3.80;99.90;;;;;;7348627;32;20422;-54
2023/12/08 09:53:40;;;;;;;20.27;12.90;;;3.70;99.90;;;;;;7345961;32;20131;-56
2023/12/08 09:57:45;;;;;;;23.12;13.80;;;3.70;99.90;;;;;;7349314;32;20261;-56
2023/12/08 10:01:46;;;;;;;23.77;14.35;;;3.70;99.90;;;;;;7348212;32;20098;-56
2023/12/08 10:05:52;;;;;;;21.85;12.23;;;3.70;99.90;;;;;;7345645;32;20209;-55
2023/12/08 10:09:53;;;;;;;20.70;13.27;;;3.70;99.90;;;;;;7350135;32;21078;-55
2023/12/08 10:13:58;;;;;;;24.55;14.05;;;3.70;99.90;;;;;;7344603;32;20103;-54
2023/12/08 10:17:59;;;;;;;24.52;14.13;;;3.80;99.90;;;;;;7341819;32;20231;-56
2023/12/08 10:22:01;;;;;;;22.13;12.60;;;3.90;99.90;;;;;;7350904;32;20642;-55
2023/12/08 10:26:04;;;;;;;21.98;13.40;;;3.90;99.90;;;;;;7349194;32;20107;-55
2023/12/08 10:30:07;;;;;;;24.25;13.45;;;3.90;99.90;;;;;;7344586;32;20772;-55
2023/12/08 10:34:10;;;;;;;25.10;13.77;;;4.00;99.90;;;;;;7345955;32;20119;-55
2023/12/08 10:38:16;;;;;;;21.92;13.62;;;4.00;99.90;;;;;;7347727;32;20258;-55
2023/12/08 10:42:17;;;;;;;21.90;14.00;;;4.00;99.90;;;;;;7347789;32;20296;-56
2023/12/08 10:46:20;;;;;;;22.35;13.98;;;4.10;99.90;;;;;;7348342;32;20152;-56
2023/12/08 10:50:23;;;;;;;21.90;13.10;;;4.10;99.90;;;;;;7348794;32;21013;-55
2023/12/08 10:54:25;;;;;;;22.95;13.68;;;4.10;99.90;;;;;;7342585;32;20199;-55
2023/12/08 10:58:28;;;;;;;22.58;13.93;;;4.20;99.90;;;;;;7344826;32;20210;-54
2023/12/08 11:02:32;;;;;;;20.92;14.25;;;4.30;99.90;;;;;;7344673;32;20471;-55
2023/12/08 11:06:38;;;;;;;22.17;13.45;;;4.30;99.90;;;;;;7347958;32;20222;-55
2023/12/08 11:10:44;;;;;;;24.45;14.85;;;4.30;99.90;;;;;;7345952;32;20100;-54
2023/12/08 11:14:53;;;;;;;25.90;15.00;;;4.40;99.90;;;;;;7345973;32;20360;-55
2023/12/08 11:18:56;;;;;;;30.42;14.60;;;4.40;99.90;;;;;;7344229;32;20252;-55
2023/12/08 11:22:58;;;;;;;28.05;16.23;;;4.30;99.90;;;;;;7343691;32;20484;-53
2023/12/08 11:27:15;;;;;;;25.35;14.98;;;4.40;99.90;;;;;;7339431;32;20243;-55
2023/12/08 11:31:24;;;;;;;27.48;14.55;;;4.40;99.90;;;;;;7339989;32;20127;-55
2023/12/08 11:35:28;;;;;;;27.13;15.30;;;4.40;99.90;;;;;;7345344;32;20166;-55
2023/12/08 11:39:33;;;;;;;28.85;16.12;;;4.50;99.90;;;;;;7338244;32;20243;-54
2023/12/08 11:43:35;;;;;;;26.90;15.82;;;4.40;99.90;;;;;;7342548;32;20103;-56
2023/12/08 11:47:37;;;;;;;32.08;16.42;;;4.50;99.90;;;;;;7339547;32;20643;-55
2023/12/08 11:51:39;;;;;;;29.30;15.82;;;4.50;99.90;;;;;;7343468;32;20218;-55
2023/12/08 11:55:41;;;;;;;28.20;15.85;;;4.60;99.90;;;;;;7340754;32;20167;-55
2023/12/08 11:59:44;;;;;;;28.25;16.27;;;4.60;99.90;;;;;;7341267;32;20099;-55
2023/12/08 12:03:46;;;;;;;24.83;14.50;;;4.60;99.90;;;;;;7337810;32;20188;-55
2023/12/08 12:07:50;;;;;;;26.50;15.93;;;4.70;99.90;;;;;;7344466;32;20202;-55
2023/12/08 12:11:55;;;;;;;24.90;14.50;;;4.80;99.90;;;;;;7339626;32;20343;-53
2023/12/08 12:15:56;;;;;;;25.85;15.85;;;4.80;99.90;;;;;;7337486;32;20121;-55
2023/12/08 12:19:58;;;;;;;26.70;15.55;;;4.70;99.90;;;;;;7335609;32;20145;-56
2023/12/08 12:24:00;;;;;;;27.23;15.65;;;4.80;99.90;;;;;;7343596;32;20117;-55
2023/12/08 12:28:02;;;;;;;22.55;14.55;;;4.80;99.90;;;;;;7348404;32;20122;-55
2023/12/08 12:32:07;;;;;;;26.58;15.00;;;4.90;99.90;;;;;;7348983;32;20234;-55
2023/12/08 12:36:12;;;;;;;29.08;16.67;;;5.00;99.90;;;;;;7348410;32;20498;-55
2023/12/08 12:40:14;;;;;;;26.65;15.35;;;5.10;99.90;;;;;;7345769;32;20103;-54
2023/12/08 12:44:15;;;;;;;24.20;15.10;;;5.10;99.90;;;;;;7352234;32;20216;-54
2023/12/08 12:48:24;;;;;;;26.45;15.23;;;5.10;99.90;;;;;;7344718;32;20129;-54
2023/12/08 12:52:27;;;;;;;26.92;15.18;;;5.00;99.90;;;;;;7350111;32;20104;-55
2023/12/08 12:56:33;;;;;;;25.90;16.27;;;5.20;99.90;;;;;;7348850;32;20155;-55
2023/12/08 13:00:40;;;;;;;23.12;15.23;;;5.20;99.90;;;;;;7345246;32;20282;-55
2023/12/08 13:04:42;;;;;;;25.80;16.35;;;5.30;99.90;;;;;;7343587;32;20917;-55
2023/12/08 13:08:43;;;;;;;23.73;14.30;;;5.40;99.90;;;;;;7348673;32;20107;-56
2023/12/08 13:12:46;;;;;;;24.90;15.80;;;5.40;99.90;;;;;;7348492;32;20119;-56
2023/12/08 13:16:47;;;;;;;31.55;16.00;;;5.50;99.90;;;;;;7345972;32;20122;-56
2023/12/08 13:20:49;;;;;;;28.90;16.58;;;5.50;99.90;;;;;;7349511;32;20534;-56
2023/12/08 13:24:51;;;;;;;31.55;17.55;;;5.50;99.90;;;;;;7349887;32;20130;-56
2023/12/08 13:28:53;;;;;;;28.35;16.75;;;5.50;99.90;;;;;;7347629;32;20127;-56
2023/12/08 13:32:54;;;;;;;31.45;16.85;;;5.50;99.90;;;;;;7337771;32;20125;-55
2023/12/08 13:36:58;;;;;;;29.83;17.58;;;5.50;99.90;;;;;;7346902;32;20486;-57
2023/12/08 13:40:59;;;;;;;29.92;16.10;;;5.40;99.90;;;;;;7348854;32;20141;-55
2023/12/08 13:45:02;;;;;;;35.30;16.83;;;5.40;99.90;;;;;;7348064;32;20238;-53
2023/12/08 13:49:07;;;;;;;31.67;17.45;;;5.40;99.90;;;;;;7345504;32;20499;-54
2023/12/08 13:53:09;;;;;;;27.05;16.83;;;5.60;99.90;;;;;;7344383;32;20195;-55
2023/12/08 13:57:10;;;;;;;32.13;17.73;;;5.50;99.90;;;;;;7348196;32;20227;-57
2023/12/08 14:01:14;;;;;;;33.55;17.92;;;5.60;99.90;;;;;;7347953;32;20304;-56
2023/12/08 14:05:16;;;;;;;40.10;18.77;;;5.60;99.90;;;;;;7346005;32;20099;-55
2023/12/08 14:09:18;;;;;;;33.33;17.87;;;5.60;99.90;;;;;;7349011;32;20543;-57
2023/12/08 14:13:20;;;;;;;33.38;19.37;;;5.60;99.90;;;;;;7346211;32;20183;-56
2023/12/08 14:17:22;;;;;;;32.13;18.67;;;5.70;99.90;;;;;;7350656;32;20230;-57
2023/12/08 14:21:24;;;;;;;35.75;18.87;;;5.70;99.90;;;;;;7341869;32;20116;-57
2023/12/08 14:25:26;;;;;;;35.33;19.00;;;5.70;99.90;;;;;;7343534;32;20112;-55
2023/12/08 14:29:28;;;;;;;39.30;18.92;;;5.80;99.90;;;;;;7350679;32;20142;-56
2023/12/08 14:33:29;;;;;;;36.40;19.80;;;5.80;99.90;;;;;;7342654;32;20095;-56
2023/12/08 14:37:31;;;;;;;34.00;18.55;;;5.90;99.90;;;;;;7346781;32;20223;-55
2023/12/08 14:41:34;;;;;;;37.08;17.42;;;5.90;99.90;;;;;;7345236;32;20099;-55
2023/12/08 14:45:35;;;;;;;37.42;18.60;;;5.90;99.90;;;;;;7348919;32;20701;-56
2023/12/08 14:49:37;;;;;;;35.75;17.52;;;6.00;99.90;;;;;;7344601;32;20271;-57
2023/12/08 14:53:39;;;;;;;33.35;17.50;;;6.00;99.90;;;;;;7340266;32;20203;-57
2023/12/08 14:57:41;;;;;;;31.87;16.65;;;6.10;99.90;;;;;;7339443;32;20165;-56
2023/12/08 15:01:42;;;;;;;33.35;17.23;;;6.10;99.90;;;;;;7339840;32;20219;-56
2023/12/08 15:05:45;;;;;;;34.38;17.23;;;6.20;99.90;;;;;;7342191;32;20103;-55
2023/12/08 15:09:47;;;;;;;30.27;16.95;;;6.10;99.90;;;;;;7340145;32;20153;-56
2023/12/08 15:13:49;;;;;;;29.65;16.90;;;6.10;99.90;;;;;;7346535;32;20195;-56
2023/12/08 15:17:51;;;;;;;32.65;16.25;;;6.10;99.90;;;;;;7339329;32;20123;-56
2023/12/08 15:21:59;;;;;;;29.25;15.70;;;6.20;99.90;;;;;;7344014;32;20296;-54
2023/12/08 15:26:01;;;;;;;33.08;16.58;;;6.20;99.90;;;;;;7338493;32;20100;-56
2023/12/08 15:30:03;;;;;;;29.05;14.95;;;6.20;99.90;;;;;;7324562;32;20178;-57
2023/12/08 15:34:06;;;;;;;31.37;16.85;;;6.20;99.90;;;;;;7342459;32;20502;-56
2023/12/08 15:38:09;;;;;;;34.95;16.52;;;6.20;99.90;;;;;;7341908;32;20103;-56
2023/12/08 15:42:11;;;;;;;40.17;17.85;;;6.20;99.90;;;;;;7342933;32;20127;-56
2023/12/08 15:46:13;;;;;;;35.30;15.82;;;6.30;99.90;;;;;;7345280;32;20191;-55
2023/12/08 15:50:15;;;;;;;30.88;14.05;;;6.30;99.90;;;;;;7346515;32;20273;-56
2023/12/08 15:54:19;;;;;;;38.95;14.95;;;6.30;99.90;;;;;;7347403;32;20123;-56
2023/12/08 15:58:21;;;;;;;33.42;15.27;;;6.30;99.90;;;;;;7346057;32;20194;-56
2023/12/08 16:02:23;;;;;;;28.40;14.07;;;6.30;99.90;;;;;;7345046;32;20212;-55
2023/12/08 16:06:26;;;;;;;26.20;12.82;;;6.30;99.90;;;;;;7347562;32;20117;-54
2023/12/08 16:10:28;;;;;;;24.95;14.05;;;6.30;99.90;;;;;;7341408;32;20547;-55
2023/12/08 16:14:30;;;;;;;28.45;13.73;;;6.30;99.90;;;;;;7346066;32;20823;-55
2023/12/08 16:18:32;;;;;;;21.95;12.20;;;6.30;99.90;;;;;;7347350;32;20134;-55
2023/12/08 16:22:34;;;;;;;27.20;12.68;;;6.30;99.90;;;;;;7342623;32;20191;-55
2023/12/08 16:26:36;;;;;;;25.92;12.37;;;6.40;99.90;;;;;;7344238;32;20099;-54
2023/12/08 16:30:41;;;;;;;29.23;12.55;;;6.40;99.90;;;;;;7340983;32;20365;-55
2023/12/08 16:34:43;;;;;;;27.98;12.98;;;6.40;99.90;;;;;;7347556;32;20592;-55
2023/12/08 16:38:45;;;;;;;29.37;13.15;;;6.40;99.90;;;;;;7340981;32;20627;-55
2023/12/08 16:42:47;;;;;;;37.35;13.88;;;6.40;99.90;;;;;;7344151;32;20228;-55
2023/12/08 16:46:48;;;;;;;26.30;13.13;;;6.40;99.90;;;;;;7343081;32;20161;-55
2023/12/08 16:50:50;;;;;;;24.67;12.68;;;6.40;99.90;;;;;;7342320;32;20127;-55
2023/12/08 16:54:55;;;;;;;25.15;11.43;;;6.50;99.90;;;;;;7339670;32;20327;-55
2023/12/08 16:58:57;;;;;;;25.60;11.57;;;6.50;99.90;;;;;;7341906;32;20099;-55
2023/12/08 17:02:59;;;;;;;30.08;11.60;;;6.60;99.90;;;;;;7347850;32;20509;-56
2023/12/08 17:07:01;;;;;;;21.75;11.50;;;6.60;99.90;;;;;;7339990;32;20134;-55
2023/12/08 17:11:03;;;;;;;27.42;11.98;;;6.60;99.90;;;;;;7343525;32;20202;-56
2023/12/08 17:15:05;;;;;;;28.58;12.40;;;6.50;99.90;;;;;;7348713;32;20103;-55
2023/12/08 17:19:07;;;;;;;20.75;10.30;;;6.60;99.90;;;;;;7350344;32;20222;-55
2023/12/08 17:23:09;;;;;;;27.25;12.30;;;6.70;99.90;;;;;;7345531;32;20183;-56
2023/12/08 17:27:11;;;;;;;24.95;11.88;;;6.60;99.90;;;;;;7353328;32;20232;-55
2023/12/08 17:31:13;;;;;;;25.25;11.85;;;6.70;99.90;;;;;;7348030;32;20099;-55
2023/12/08 17:35:15;;;;;;;26.25;11.88;;;6.70;99.90;;;;;;7348154;32;20178;-52
2023/12/08 17:39:17;;;;;;;22.40;10.93;;;6.60;99.90;;;;;;7355609;32;20122;-55
2023/12/08 17:43:19;;;;;;;29.27;12.98;;;6.60;99.90;;;;;;7352826;32;20166;-55
2023/12/08 17:47:21;;;;;;;26.83;12.52;;;6.60;99.90;;;;;;7346481;32;20627;-55
2023/12/08 17:51:22;;;;;;;25.23;12.30;;;6.60;99.90;;;;;;7353429;32;20529;-55
2023/12/08 17:55:24;;;;;;;24.20;12.32;;;6.60;99.90;;;;;;7350779;32;20092;-54
2023/12/08 17:59:26;;;;;;;27.87;12.02;;;6.60;99.90;;;;;;7354298;32;20102;-55
2023/12/08 18:03:28;;;;;;;23.83;11.43;;;6.60;99.90;;;;;;7353094;32;20250;-54
2023/12/08 18:07:30;;;;;;;22.33;10.95;;;6.70;99.90;;;;;;7354114;32;20100;-54
2023/12/08 18:11:32;;;;;;;26.40;11.48;;;6.80;99.90;;;;;;7349499;32;20505;-54
2023/12/08 18:15:34;;;;;;;31.37;11.07;;;6.70;99.90;;;;;;7352321;32;20509;-54
2023/12/08 18:19:36;;;;;;;20.37;10.48;;;6.80;99.90;;;;;;7340242;32;20095;-55
2023/12/08 18:23:38;;;;;;;27.80;11.52;;;6.70;99.90;;;;;;7342347;32;20127;-54
2023/12/08 18:27:41;;;;;;;24.20;10.90;;;6.80;99.90;;;;;;7350961;32;20615;-54
2023/12/08 18:32:03;;;;;;;24.17;10.23;;;6.80;99.90;;;;;;7346782;32;20390;-54
2023/12/08 18:36:05;;;;;;;27.15;11.02;;;6.80;99.90;;;;;;7349882;32;20122;-55
2023/12/08 18:40:08;;;;;;;24.20;10.02;;;6.80;99.90;;;;;;7353368;32;20191;-54
2023/12/08 18:44:09;;;;;;;20.83;10.18;;;6.80;99.90;;;;;;7345191;32;20108;-54
2023/12/08 18:48:11;;;;;;;19.35;10.40;;;6.80;99.90;;;;;;7349435;32;20181;-55
2023/12/08 18:52:13;;;;;;;19.35;9.80;;;6.80;99.90;;;;;;7351847;32;20182;-55
2023/12/08 18:56:15;;;;;;;23.52;9.45;;;6.80;99.90;;;;;;7349243;32;20138;-55
2023/12/08 19:00:17;;;;;;;30.92;11.77;;;6.80;99.90;;;;;;7350334;32;20302;-55
2023/12/08 19:04:18;;;;;;;26.73;11.12;;;6.70;99.90;;;;;;7349142;32;20513;-55
2023/12/08 19:08:20;;;;;;;26.33;10.73;;;6.70;99.90;;;;;;7341077;32;20222;-55
2023/12/08 19:12:22;;;;;;;22.65;10.15;;;6.70;99.90;;;;;;7341596;32;20095;-55
2023/12/08 19:16:24;;;;;;;22.62;10.73;;;6.70;99.90;;;;;;7347147;32;20273;-54
2023/12/08 19:20:28;;;;;;;20.23;10.05;;;6.70;99.90;;;;;;7349174;32;20151;-55
2023/12/08 19:24:30;;;;;;;25.30;11.57;;;6.70;99.90;;;;;;7347537;32;20151;-54
2023/12/08 19:28:33;;;;;;;29.35;11.70;;;6.60;99.90;;;;;;7346465;32;21107;-54
2023/12/08 19:32:35;;;;;;;22.62;10.80;;;6.60;99.90;;;;;;7345550;32;20210;-54
2023/12/08 19:36:37;;;;;;;22.55;10.13;;;6.60;99.90;;;;;;7346664;32;20546;-55
2023/12/08 19:40:38;;;;;;;25.88;10.57;;;6.60;99.90;;;;;;7349405;32;20162;-55
2023/12/08 19:44:40;;;;;;;24.52;10.68;;;6.60;99.90;;;;;;7344534;32;20187;-55
2023/12/08 19:48:42;;;;;;;17.20;9.98;;;6.60;99.90;;;;;;7347929;32;20100;-55
2023/12/08 19:52:44;;;;;;;25.02;10.23;;;6.50;99.90;;;;;;7341702;32;20815;-54
2023/12/08 19:56:46;;;;;;;22.87;9.73;;;6.50;99.90;;;;;;7338862;32;20203;-56
2023/12/08 20:00:47;;;;;;;19.20;9.75;;;6.50;99.90;;;;;;7344021;32;20103;-55
2023/12/08 20:04:50;;;;;;;21.80;9.18;;;6.50;99.90;;;;;;7346466;32;20371;-56
2023/12/08 20:08:52;;;;;;;21.10;8.57;;;6.50;99.90;;;;;;7344597;32;20209;-56
2023/12/08 20:12:53;;;;;;;28.12;9.68;;;6.50;99.90;;;;;;7342076;32;20561;-56
2023/12/08 20:16:55;;;;;;;22.67;9.07;;;6.60;99.90;;;;;;7336554;32;20695;-56
2023/12/08 20:20:57;;;;;;;18.50;8.45;;;6.60;99.90;;;;;;7341311;32;20842;-57
2023/12/08 20:24:59;;;;;;;20.42;8.60;;;6.60;99.90;;;;;;7349051;32;20099;-56
2023/12/08 20:29:01;;;;;;;17.87;7.70;;;6.60;99.90;;;;;;7338926;32;20961;-56
2023/12/08 20:33:04;;;;;;;24.30;7.37;;;6.60;99.90;;;;;;7345195;32;20168;-57
2023/12/08 20:37:06;;;;;;;17.00;7.55;;;6.50;99.90;;;;;;7343704;32;20239;-57
2023/12/08 20:41:07;;;;;;;17.95;7.82;;;6.70;99.90;;;;;;7347875;32;20111;-57
2023/12/08 20:45:10;;;;;;;19.15;7.25;;;6.70;99.90;;;;;;7346246;32;20931;-55
2023/12/08 20:49:13;;;;;;;13.95;7.60;;;6.70;99.90;;;;;;7351662;32;20182;-57
2023/12/08 20:53:15;;;;;;;22.45;6.80;;;6.80;99.90;;;;;;7349249;32;20232;-56